createdAt,value
2018-04-26T00:00:16.904Z,988.52
2018-04-26T00:01:16.833Z,988.55
2018-04-26T00:02:16.753Z,988.51
2018-04-26T00:03:16.678Z,988.53
2018-04-26T00:04:16.603Z,988.55
2018-04-26T00:05:16.529Z,988.59
2018-04-26T00:06:16.452Z,988.63
2018-04-26T00:07:16.377Z,988.68
2018-04-26T00:08:16.301Z,988.65
2018-04-26T00:09:16.228Z,988.66
2018-04-26T00:10:16.151Z,988.72
2018-04-26T00:11:16.079Z,988.71
2018-04-26T00:12:15.999Z,988.69
2018-04-26T00:13:15.924Z,988.65
2018-04-26T00:14:15.848Z,988.59
2018-04-26T00:15:15.772Z,988.56
2018-04-26T00:16:15.698Z,988.56
2018-04-26T00:17:15.625Z,988.58
2018-04-26T00:18:15.546Z,988.60
2018-04-26T00:19:15.470Z,988.61
2018-04-26T00:20:15.395Z,988.58
2018-04-26T00:21:15.320Z,988.59
2018-04-26T00:22:15.248Z,988.56
2018-04-26T00:23:15.171Z,988.53
2018-04-26T00:24:15.092Z,988.58
2018-04-26T00:25:15.016Z,988.53
2018-04-26T00:26:14.942Z,988.50
2018-04-26T00:27:14.864Z,988.55
2018-04-26T00:28:14.788Z,988.53
2018-04-26T00:29:14.720Z,988.49
2018-04-26T00:30:14.635Z,988.49
2018-04-26T00:31:14.561Z,988.46
2018-04-26T00:32:14.485Z,988.46
2018-04-26T00:33:14.409Z,988.43
2018-04-26T00:34:14.334Z,988.46
2018-04-26T00:35:14.257Z,988.43
2018-04-26T00:36:14.181Z,988.44
2018-04-26T00:37:14.105Z,988.55
2018-04-26T00:38:14.029Z,988.62
2018-04-26T00:39:13.952Z,988.70
2018-04-26T00:40:13.877Z,988.71
2018-04-26T00:41:13.801Z,988.70
2018-04-26T00:42:13.725Z,988.69
2018-04-26T00:43:13.648Z,988.69
2018-04-26T00:44:13.573Z,988.67
2018-04-26T00:45:13.507Z,988.67
2018-04-26T00:46:13.421Z,988.63
2018-04-26T00:47:13.345Z,988.63
2018-04-26T00:48:13.269Z,988.62
2018-04-26T00:49:13.192Z,988.64
2018-04-26T00:50:13.117Z,988.67
2018-04-26T00:51:13.040Z,988.69
2018-04-26T00:52:12.967Z,988.67
2018-04-26T00:53:12.886Z,988.68
2018-04-26T00:54:12.809Z,988.70
2018-04-26T00:55:12.734Z,988.71
2018-04-26T00:56:12.664Z,988.72
2018-04-26T00:57:12.583Z,988.76
2018-04-26T00:58:12.505Z,988.87
2018-04-26T00:59:12.428Z,988.90
2018-04-26T01:00:12.353Z,988.88
2018-04-26T01:01:12.276Z,988.90
2018-04-26T01:02:12.199Z,988.90
2018-04-26T01:03:12.122Z,988.88
2018-04-26T01:04:12.045Z,988.92
2018-04-26T01:05:11.969Z,988.96
2018-04-26T01:06:11.892Z,988.93
2018-04-26T01:07:11.815Z,988.98
2018-04-26T01:08:11.742Z,988.98
2018-04-26T01:09:11.662Z,988.98
2018-04-26T01:10:11.584Z,988.96
2018-04-26T01:11:11.509Z,988.98
2018-04-26T01:12:11.431Z,988.99
2018-04-26T01:13:11.356Z,988.98
2018-04-26T01:14:11.277Z,988.90
2018-04-26T01:15:11.201Z,988.96
2018-04-26T01:16:11.123Z,988.93
2018-04-26T01:17:11.047Z,988.92
2018-04-26T01:18:11.009Z,988.95
2018-04-26T01:19:10.901Z,988.96
2018-04-26T01:20:11.021Z,988.93
2018-04-26T01:21:10.740Z,989.06
2018-04-26T01:22:10.661Z,989.03
2018-04-26T01:23:10.585Z,989.00
2018-04-26T01:24:10.512Z,989.09
2018-04-26T01:25:10.432Z,989.08
2018-04-26T01:26:10.353Z,989.10
2018-04-26T01:27:10.280Z,989.06
2018-04-26T01:28:10.200Z,989.07
2018-04-26T01:29:10.122Z,989.04
2018-04-26T01:30:10.046Z,989.07
2018-04-26T01:31:09.968Z,988.99
2018-04-26T01:32:09.892Z,989.04
2018-04-26T01:33:09.815Z,989.02
2018-04-26T01:34:09.737Z,988.94
2018-04-26T01:35:09.739Z,988.93
2018-04-26T01:36:09.583Z,988.94
2018-04-26T01:37:09.507Z,988.96
2018-04-26T01:38:09.430Z,989.02
2018-04-26T01:39:09.351Z,989.07
2018-04-26T01:40:09.274Z,989.12
2018-04-26T01:41:09.198Z,989.11
2018-04-26T01:42:09.121Z,989.10
2018-04-26T01:43:09.052Z,989.13
2018-04-26T01:44:08.976Z,989.21
2018-04-26T01:45:08.891Z,989.14
2018-04-26T01:46:08.812Z,989.17
2018-04-26T01:47:08.733Z,989.10
2018-04-26T01:48:08.658Z,989.14
2018-04-26T01:49:08.585Z,989.18
2018-04-26T01:50:08.502Z,989.18
2018-04-26T01:51:08.424Z,989.19
2018-04-26T01:52:08.350Z,989.23
2018-04-26T01:53:08.271Z,989.24
2018-04-26T01:54:08.192Z,989.18
2018-04-26T01:55:08.115Z,989.22
2018-04-26T01:56:08.038Z,989.27
2018-04-26T01:57:07.960Z,989.27
2018-04-26T01:58:07.883Z,989.33
2018-04-26T01:59:07.806Z,989.29
2018-04-26T02:00:07.728Z,989.27
2018-04-26T02:01:07.800Z,989.32
2018-04-26T02:02:07.573Z,989.29
2018-04-26T02:03:07.498Z,989.27
2018-04-26T02:04:07.418Z,989.25
2018-04-26T02:05:07.340Z,989.26
2018-04-26T02:06:07.262Z,989.20
2018-04-26T02:07:07.185Z,989.19
2018-04-26T02:08:07.107Z,989.16
2018-04-26T02:09:07.030Z,989.17
2018-04-26T02:10:06.952Z,989.14
2018-04-26T02:11:06.874Z,989.15
2018-04-26T02:12:06.797Z,989.22
2018-04-26T02:13:06.720Z,989.24
2018-04-26T02:14:06.641Z,989.26
2018-04-26T02:15:06.564Z,989.25
2018-04-26T02:16:06.487Z,989.29
2018-04-26T02:17:06.410Z,989.28
2018-04-26T02:18:06.331Z,989.21
2018-04-26T02:19:06.253Z,989.24
2018-04-26T02:20:06.176Z,989.20
2018-04-26T02:21:06.098Z,989.23
2018-04-26T02:22:06.022Z,989.23
2018-04-26T02:23:05.945Z,989.24
2018-04-26T02:24:05.871Z,989.29
2018-04-26T02:25:05.791Z,989.31
2018-04-26T02:26:05.709Z,989.32
2018-04-26T02:27:05.633Z,989.36
2018-04-26T02:28:05.554Z,989.37
2018-04-26T02:29:05.479Z,989.39
2018-04-26T02:30:05.397Z,989.44
2018-04-26T02:31:05.320Z,989.45
2018-04-26T02:32:05.246Z,989.38
2018-04-26T02:33:05.166Z,989.39
2018-04-26T02:34:05.086Z,989.42
2018-04-26T02:35:05.009Z,989.42
2018-04-26T02:36:04.931Z,989.41
2018-04-26T02:37:04.853Z,989.43
2018-04-26T02:38:04.777Z,989.47
2018-04-26T02:39:04.698Z,989.51
2018-04-26T02:40:04.630Z,989.49
2018-04-26T02:41:04.542Z,989.49
2018-04-26T02:42:04.464Z,989.49
2018-04-26T02:43:04.388Z,989.49
2018-04-26T02:44:04.308Z,989.48
2018-04-26T02:45:04.234Z,989.48
2018-04-26T02:46:04.152Z,989.46
2018-04-26T02:47:04.073Z,989.48
2018-04-26T02:48:03.997Z,989.47
2018-04-26T02:49:03.918Z,989.45
2018-04-26T02:50:03.843Z,989.43
2018-04-26T02:51:03.763Z,989.38
2018-04-26T02:52:03.687Z,989.43
2018-04-26T02:53:03.609Z,989.43
2018-04-26T02:54:03.530Z,989.38
2018-04-26T02:55:03.453Z,989.36
2018-04-26T02:56:03.376Z,989.36
2018-04-26T02:57:03.298Z,989.37
2018-04-26T02:58:03.220Z,989.33
2018-04-26T02:59:03.143Z,989.35
2018-04-26T03:00:03.066Z,989.34
2018-04-26T03:01:02.992Z,989.35
2018-04-26T03:02:02.943Z,989.35
2018-04-26T03:03:02.831Z,989.39
2018-04-26T03:04:02.754Z,989.38
2018-04-26T03:05:02.680Z,989.39
2018-04-26T03:06:02.600Z,989.39
2018-04-26T03:07:02.523Z,989.36
2018-04-26T03:08:02.445Z,989.42
2018-04-26T03:09:02.367Z,989.38
2018-04-26T03:10:02.289Z,989.39
2018-04-26T03:11:02.212Z,989.37
2018-04-26T03:12:02.133Z,989.38
2018-04-26T03:13:02.055Z,989.37
2018-04-26T03:14:01.978Z,989.36
2018-04-26T03:15:01.904Z,989.36
2018-04-26T03:16:01.822Z,989.36
2018-04-26T03:17:01.746Z,989.36
2018-04-26T03:18:01.666Z,989.31
2018-04-26T03:19:01.590Z,989.32
2018-04-26T03:20:01.511Z,989.34
2018-04-26T03:21:01.434Z,989.31
2018-04-26T03:22:01.356Z,989.35
2018-04-26T03:23:01.277Z,989.36
2018-04-26T03:24:01.202Z,989.35
2018-04-26T03:25:01.127Z,989.36
2018-04-26T03:26:01.045Z,989.36
2018-04-26T03:27:00.966Z,989.41
2018-04-26T03:28:00.892Z,989.43
2018-04-26T03:29:00.812Z,989.43
2018-04-26T03:30:00.734Z,989.39
2018-04-26T03:31:00.681Z,989.41
2018-04-26T03:32:00.579Z,989.45
2018-04-26T03:33:00.501Z,989.48
2018-04-26T03:34:00.422Z,989.50
2018-04-26T03:35:00.345Z,989.49
2018-04-26T03:36:00.267Z,989.50
2018-04-26T03:37:00.189Z,989.51
2018-04-26T03:38:00.111Z,989.49
2018-04-26T03:39:00.035Z,989.56
2018-04-26T03:39:59.956Z,989.55
2018-04-26T03:40:59.878Z,989.57
2018-04-26T03:41:59.800Z,989.56
2018-04-26T03:42:59.726Z,989.60
2018-04-26T03:43:59.645Z,989.60
2018-04-26T03:44:59.568Z,989.54
2018-04-26T03:45:59.487Z,989.53
2018-04-26T03:46:59.410Z,989.56
2018-04-26T03:47:59.333Z,989.57
2018-04-26T03:48:59.255Z,989.57
2018-04-26T03:49:59.188Z,989.53
2018-04-26T03:50:59.100Z,989.51
2018-04-26T03:51:59.021Z,989.57
2018-04-26T03:52:58.942Z,989.64
2018-04-26T03:53:58.863Z,989.58
2018-04-26T03:54:58.787Z,989.60
2018-04-26T03:55:58.709Z,989.62
2018-04-26T03:56:58.632Z,989.66
2018-04-26T03:57:58.552Z,989.64
2018-04-26T03:58:58.474Z,989.69
2018-04-26T03:59:58.396Z,989.68
2018-04-26T04:00:58.317Z,989.65
2018-04-26T04:01:58.241Z,989.69
2018-04-26T04:02:58.162Z,989.63
2018-04-26T04:03:58.084Z,989.68
2018-04-26T04:04:58.011Z,989.65
2018-04-26T04:05:57.928Z,989.65
2018-04-26T04:06:57.852Z,989.69
2018-04-26T04:07:57.773Z,989.65
2018-04-26T04:08:57.695Z,989.68
2018-04-26T04:09:57.617Z,989.65
2018-04-26T04:10:57.537Z,989.68
2018-04-26T04:11:57.460Z,989.68
2018-04-26T04:12:57.383Z,989.69
2018-04-26T04:13:57.304Z,989.72
2018-04-26T04:14:57.228Z,989.67
2018-04-26T04:15:57.149Z,989.72
2018-04-26T04:16:57.071Z,989.70
2018-04-26T04:17:56.992Z,989.69
2018-04-26T04:18:56.915Z,989.70
2018-04-26T04:19:56.838Z,989.75
2018-04-26T04:20:56.759Z,989.73
2018-04-26T04:21:56.681Z,989.70
2018-04-26T04:22:56.603Z,989.74
2018-04-26T04:23:56.524Z,989.74
2018-04-26T04:24:56.452Z,989.74
2018-04-26T04:25:56.370Z,989.75
2018-04-26T04:26:56.294Z,989.74
2018-04-26T04:27:56.226Z,989.76
2018-04-26T04:28:56.137Z,989.78
2018-04-26T04:29:56.058Z,989.83
2018-04-26T04:30:55.983Z,989.75
2018-04-26T04:31:55.903Z,989.77
2018-04-26T04:32:55.824Z,989.75
2018-04-26T04:33:55.784Z,989.70
2018-04-26T04:34:55.669Z,989.77
2018-04-26T04:35:55.592Z,989.73
2018-04-26T04:36:55.514Z,989.71
2018-04-26T04:37:55.435Z,989.69
2018-04-26T04:38:55.357Z,989.78
2018-04-26T04:39:55.280Z,989.78
2018-04-26T04:40:55.203Z,989.76
2018-04-26T04:41:55.124Z,989.73
2018-04-26T04:42:55.050Z,989.74
2018-04-26T04:43:54.969Z,989.75
2018-04-26T04:44:54.891Z,989.78
2018-04-26T04:45:54.814Z,989.75
2018-04-26T04:46:54.736Z,989.72
2018-04-26T04:47:54.658Z,989.76
2018-04-26T04:48:54.582Z,989.75
2018-04-26T04:49:54.503Z,989.80
2018-04-26T04:50:54.426Z,989.81
2018-04-26T04:51:54.349Z,989.81
2018-04-26T04:52:54.270Z,989.80
2018-04-26T04:53:54.192Z,989.81
2018-04-26T04:54:54.115Z,989.85
2018-04-26T04:55:54.038Z,989.82
2018-04-26T04:56:53.961Z,989.85
2018-04-26T04:57:53.883Z,989.91
2018-04-26T04:58:53.811Z,989.94
2018-04-26T04:59:53.737Z,989.96
2018-04-26T05:00:53.651Z,989.93
2018-04-26T05:01:53.572Z,989.93
2018-04-26T05:02:53.495Z,989.94
2018-04-26T05:03:53.418Z,989.97
2018-04-26T05:04:53.340Z,989.89
2018-04-26T05:05:53.268Z,989.91
2018-04-26T05:06:53.185Z,989.92
2018-04-26T05:07:53.109Z,989.87
2018-04-26T05:08:53.031Z,989.91
2018-04-26T05:09:52.952Z,989.91
2018-04-26T05:10:52.877Z,989.84
2018-04-26T05:11:52.797Z,989.87
2018-04-26T05:12:52.720Z,989.89
2018-04-26T05:13:52.711Z,989.91
2018-04-26T05:14:52.567Z,989.91
2018-04-26T05:15:52.489Z,989.91
2018-04-26T05:16:52.413Z,989.96
2018-04-26T05:17:52.334Z,989.95
2018-04-26T05:18:52.256Z,989.95
2018-04-26T05:19:52.181Z,990.00
2018-04-26T05:20:52.104Z,990.02
2018-04-26T05:21:52.025Z,990.01
2018-04-26T05:22:51.949Z,990.04
2018-04-26T05:23:51.871Z,990.05
2018-04-26T05:24:51.795Z,990.05
2018-04-26T05:25:51.717Z,990.13
2018-04-26T05:26:51.639Z,990.06
2018-04-26T05:27:51.561Z,990.09
2018-04-26T05:28:51.486Z,990.07
2018-04-26T05:29:51.408Z,990.06
2018-04-26T05:30:51.332Z,990.13
2018-04-26T05:31:51.253Z,990.06
2018-04-26T05:32:51.176Z,990.10
2018-04-26T05:33:51.098Z,990.17
2018-04-26T05:34:51.022Z,990.09
2018-04-26T05:35:50.945Z,990.11
2018-04-26T05:36:50.868Z,990.14
2018-04-26T05:37:50.790Z,990.15
2018-04-26T05:38:50.713Z,990.15
2018-04-26T05:39:50.636Z,990.15
2018-04-26T05:40:50.559Z,990.17
2018-04-26T05:41:50.482Z,990.23
2018-04-26T05:42:50.406Z,990.18
2018-04-26T05:43:50.329Z,990.22
2018-04-26T05:44:50.252Z,990.25
2018-04-26T05:45:50.177Z,990.25
2018-04-26T05:46:50.097Z,990.22
2018-04-26T05:47:50.021Z,990.26
2018-04-26T05:48:49.945Z,990.29
2018-04-26T05:49:49.866Z,990.26
2018-04-26T05:50:49.790Z,990.32
2018-04-26T05:51:49.717Z,990.30
2018-04-26T05:52:49.636Z,990.30
2018-04-26T05:53:49.558Z,990.38
2018-04-26T05:54:49.481Z,990.36
2018-04-26T05:55:49.517Z,990.31
2018-04-26T05:56:49.328Z,990.30
2018-04-26T05:57:49.251Z,990.25
2018-04-26T05:58:49.174Z,990.31
2018-04-26T05:59:49.098Z,990.31
2018-04-26T06:00:49.022Z,990.33
2018-04-26T06:01:48.946Z,990.34
2018-04-26T06:02:48.868Z,990.37
2018-04-26T06:03:48.889Z,990.37
2018-04-26T06:04:48.714Z,990.37
2018-04-26T06:05:48.636Z,990.37
2018-04-26T06:06:48.559Z,990.38
2018-04-26T06:07:48.483Z,990.45
2018-04-26T06:08:48.407Z,990.40
2018-04-26T06:09:48.329Z,990.43
2018-04-26T06:10:48.253Z,990.42
2018-04-26T06:11:48.176Z,990.50
2018-04-26T06:12:48.099Z,990.41
2018-04-26T06:13:48.022Z,990.55
2018-04-26T06:14:47.945Z,990.46
2018-04-26T06:15:47.869Z,990.50
2018-04-26T06:16:47.840Z,990.46
2018-04-26T06:17:47.718Z,990.49
2018-04-26T06:18:47.639Z,990.49
2018-04-26T06:19:47.563Z,990.49
2018-04-26T06:20:47.486Z,990.52
2018-04-26T06:21:47.413Z,990.50
2018-04-26T06:22:47.333Z,990.50
2018-04-26T06:23:47.257Z,990.48
2018-04-26T06:24:47.181Z,990.54
2018-04-26T06:25:47.104Z,990.47
2018-04-26T06:26:47.029Z,990.52
2018-04-26T06:27:46.955Z,990.55
2018-04-26T06:28:46.876Z,990.60
2018-04-26T06:29:46.799Z,990.51
2018-04-26T06:30:46.722Z,990.62
2018-04-26T06:31:46.645Z,990.71
2018-04-26T06:32:46.569Z,990.65
2018-04-26T06:33:46.495Z,990.74
2018-04-26T06:34:46.419Z,990.64
2018-04-26T06:35:46.341Z,990.68
2018-04-26T06:36:46.310Z,990.74
2018-04-26T06:37:46.186Z,990.73
2018-04-26T06:38:46.110Z,990.83
2018-04-26T06:39:46.038Z,990.87
2018-04-26T06:40:45.957Z,990.89
2018-04-26T06:41:45.880Z,990.89
2018-04-26T06:42:45.801Z,990.88
2018-04-26T06:43:45.726Z,990.91
2018-04-26T06:44:45.649Z,990.89
2018-04-26T06:45:45.573Z,990.99
2018-04-26T06:46:45.495Z,990.93
2018-04-26T06:47:45.454Z,991.01
2018-04-26T06:48:45.343Z,990.97
2018-04-26T06:49:45.265Z,990.97
2018-04-26T06:50:45.190Z,990.92
2018-04-26T06:51:45.112Z,991.04
2018-04-26T06:52:45.036Z,991.09
2018-04-26T06:53:44.960Z,991.04
2018-04-26T06:54:44.882Z,991.05
2018-04-26T06:55:44.806Z,991.17
2018-04-26T06:56:44.728Z,991.08
2018-04-26T06:57:44.655Z,991.02
2018-04-26T06:58:44.576Z,991.03
2018-04-26T06:59:44.500Z,991.03
2018-04-26T07:00:44.423Z,991.12
2018-04-26T07:01:44.346Z,991.06
2018-04-26T07:02:44.269Z,991.12
2018-04-26T07:03:44.192Z,991.07
2018-04-26T07:04:44.117Z,990.99
2018-04-26T07:05:44.090Z,991.03
2018-04-26T07:06:43.964Z,991.01
2018-04-26T07:07:43.890Z,990.97
2018-04-26T07:08:43.813Z,991.00
2018-04-26T07:09:43.732Z,990.99
2018-04-26T07:10:43.656Z,990.99
2018-04-26T07:11:43.581Z,991.01
2018-04-26T07:12:43.503Z,991.02
2018-04-26T07:13:43.425Z,991.09
2018-04-26T07:14:43.350Z,991.09
2018-04-26T07:15:43.272Z,991.06
2018-04-26T07:16:43.195Z,990.98
2018-04-26T07:17:43.117Z,990.97
2018-04-26T07:18:43.042Z,991.04
2018-04-26T07:19:42.965Z,990.99
2018-04-26T07:20:42.888Z,991.05
2018-04-26T07:21:42.841Z,991.02
2018-04-26T07:22:42.735Z,991.03
2018-04-26T07:23:42.659Z,991.07
2018-04-26T07:24:42.584Z,991.12
2018-04-26T07:25:42.506Z,991.08
2018-04-26T07:26:42.432Z,991.08
2018-04-26T07:27:42.355Z,991.14
2018-04-26T07:28:42.279Z,991.16
2018-04-26T07:29:42.201Z,991.11
2018-04-26T07:30:42.125Z,991.16
2018-04-26T07:31:42.049Z,991.15
2018-04-26T07:32:41.973Z,991.19
2018-04-26T07:33:41.896Z,991.18
2018-04-26T07:34:41.821Z,991.21
2018-04-26T07:35:41.746Z,991.23
2018-04-26T07:36:41.718Z,991.14
2018-04-26T07:37:41.593Z,991.12
2018-04-26T07:38:41.517Z,991.17
2018-04-26T07:39:41.441Z,991.19
2018-04-26T07:40:41.366Z,991.16
2018-04-26T07:41:41.294Z,991.19
2018-04-26T07:42:41.214Z,991.21
2018-04-26T07:43:41.138Z,991.22
2018-04-26T07:44:41.122Z,991.35
2018-04-26T07:45:40.986Z,991.34
2018-04-26T07:46:40.917Z,991.28
2018-04-26T07:47:40.837Z,991.31
2018-04-26T07:48:40.764Z,991.27
2018-04-26T07:49:40.683Z,991.28
2018-04-26T07:50:40.608Z,991.25
2018-04-26T07:51:40.532Z,991.29
2018-04-26T07:52:40.458Z,991.35
2018-04-26T07:53:40.381Z,991.36
2018-04-26T07:54:40.306Z,991.33
2018-04-26T07:55:40.230Z,991.34
2018-04-26T07:56:40.155Z,991.31
2018-04-26T07:57:40.077Z,991.30
2018-04-26T07:58:40.004Z,991.35
2018-04-26T07:59:39.928Z,991.30
2018-04-26T08:00:39.853Z,991.28
2018-04-26T08:01:39.854Z,991.37
2018-04-26T08:02:39.707Z,991.35
2018-04-26T08:03:39.631Z,991.33
2018-04-26T08:04:39.551Z,991.35
2018-04-26T08:05:39.477Z,991.40
2018-04-26T08:06:39.401Z,991.36
2018-04-26T08:07:39.326Z,991.42
2018-04-26T08:08:39.251Z,991.41
2018-04-26T08:09:39.175Z,991.46
2018-04-26T08:10:39.100Z,991.44
2018-04-26T08:11:39.063Z,991.51
2018-04-26T08:12:38.950Z,991.48
2018-04-26T08:13:38.874Z,991.49
2018-04-26T08:14:38.800Z,991.52
2018-04-26T08:15:38.726Z,991.56
2018-04-26T08:16:38.653Z,991.60
2018-04-26T08:17:38.576Z,991.64
2018-04-26T08:18:38.500Z,991.52
2018-04-26T08:19:38.490Z,991.56
2018-04-26T08:20:38.351Z,991.63
2018-04-26T08:21:38.275Z,991.70
2018-04-26T08:22:38.205Z,991.61
2018-04-26T08:23:38.125Z,991.63
2018-04-26T08:24:38.050Z,991.61
2018-04-26T08:25:37.974Z,991.58
2018-04-26T08:26:37.900Z,991.55
2018-04-26T08:27:37.827Z,991.59
2018-04-26T08:28:37.752Z,991.57
2018-04-26T08:29:37.674Z,991.57
2018-04-26T08:30:37.600Z,991.61
2018-04-26T08:31:37.526Z,991.55
2018-04-26T08:32:37.453Z,991.55
2018-04-26T08:33:37.376Z,991.50
2018-04-26T08:34:37.301Z,991.59
2018-04-26T08:35:37.227Z,991.60
2018-04-26T08:36:37.157Z,991.57
2018-04-26T08:37:37.077Z,991.60
2018-04-26T08:38:37.003Z,991.64
2018-04-26T08:39:36.928Z,991.66
2018-04-26T08:40:36.853Z,991.69
2018-04-26T08:41:36.778Z,991.68
2018-04-26T08:42:36.715Z,991.62
2018-04-26T08:43:36.630Z,991.67
2018-04-26T08:44:36.556Z,991.71
2018-04-26T08:45:36.551Z,991.65
2018-04-26T08:46:36.406Z,991.63
2018-04-26T08:47:36.333Z,991.68
2018-04-26T08:48:36.296Z,991.71
2018-04-26T08:49:36.182Z,991.63
2018-04-26T08:50:36.108Z,991.62
2018-04-26T08:51:36.035Z,991.65
2018-04-26T08:52:35.959Z,991.61
2018-04-26T08:53:35.884Z,991.61
2018-04-26T08:54:35.810Z,991.57
2018-04-26T08:55:35.734Z,991.59
2018-04-26T08:56:35.661Z,991.66
2018-04-26T08:57:35.585Z,991.65
2018-04-26T08:58:35.512Z,991.65
2018-04-26T08:59:35.436Z,991.67
2018-04-26T09:00:35.361Z,991.67
2018-04-26T09:01:35.286Z,991.67
2018-04-26T09:02:35.212Z,991.72
2018-04-26T09:03:35.137Z,991.73
2018-04-26T09:04:35.064Z,991.72
2018-04-26T09:05:34.987Z,991.67
2018-04-26T09:06:34.918Z,991.71
2018-04-26T09:07:34.838Z,991.72
2018-04-26T09:08:34.763Z,991.73
2018-04-26T09:09:34.692Z,991.72
2018-04-26T09:10:34.615Z,991.76
2018-04-26T09:11:34.541Z,991.83
2018-04-26T09:12:34.466Z,991.72
2018-04-26T09:13:34.391Z,991.67
2018-04-26T09:14:34.317Z,991.64
2018-04-26T09:15:34.326Z,991.72
2018-04-26T09:16:34.168Z,991.72
2018-04-26T09:17:34.093Z,991.76
2018-04-26T09:18:34.024Z,991.73
2018-04-26T09:19:33.943Z,991.80
2018-04-26T09:20:33.870Z,991.77
2018-04-26T09:21:33.795Z,991.79
2018-04-26T09:22:33.721Z,991.79
2018-04-26T09:23:33.648Z,991.72
2018-04-26T09:24:33.574Z,991.73
2018-04-26T09:25:33.497Z,991.82
2018-04-26T09:26:33.424Z,991.89
2018-04-26T09:27:33.349Z,991.92
2018-04-26T09:28:33.276Z,991.81
2018-04-26T09:29:33.200Z,991.84
2018-04-26T09:30:33.130Z,991.86
2018-04-26T09:31:33.052Z,991.89
2018-04-26T09:32:32.978Z,991.83
2018-04-26T09:33:32.904Z,991.81
2018-04-26T09:34:32.832Z,991.86
2018-04-26T09:35:32.756Z,991.85
2018-04-26T09:36:32.682Z,991.84
2018-04-26T09:37:32.608Z,991.93
2018-04-26T09:38:32.534Z,991.90
2018-04-26T09:39:32.461Z,991.90
2018-04-26T09:40:32.387Z,991.87
2018-04-26T09:41:32.313Z,991.85
2018-04-26T09:42:32.242Z,991.93
2018-04-26T09:43:32.167Z,991.88
2018-04-26T09:44:32.093Z,991.89
2018-04-26T09:45:32.019Z,991.94
2018-04-26T09:46:31.947Z,991.91
2018-04-26T09:47:31.872Z,991.88
2018-04-26T09:48:31.815Z,991.84
2018-04-26T09:49:31.725Z,991.91
2018-04-26T09:50:31.652Z,991.89
2018-04-26T09:51:31.578Z,991.91
2018-04-26T09:52:31.506Z,991.89
2018-04-26T09:53:31.432Z,991.99
2018-04-26T09:54:31.360Z,991.87
2018-04-26T09:55:31.325Z,991.92
2018-04-26T09:56:31.212Z,991.97
2018-04-26T09:57:31.137Z,992.02
2018-04-26T09:58:31.136Z,991.99
2018-04-26T09:59:30.993Z,991.98
2018-04-26T10:00:30.920Z,991.98
2018-04-26T10:01:30.845Z,991.95
2018-04-26T10:02:30.772Z,991.93
2018-04-26T10:03:30.850Z,991.84
2018-04-26T10:04:30.626Z,991.98
2018-04-26T10:05:30.552Z,991.85
2018-04-26T10:06:30.486Z,991.96
2018-04-26T10:07:30.406Z,992.04
2018-04-26T10:08:30.333Z,991.97
2018-04-26T10:09:30.309Z,991.88
2018-04-26T10:10:30.187Z,991.88
2018-04-26T10:11:30.113Z,991.95
2018-04-26T10:12:30.041Z,991.98
2018-04-26T10:13:29.967Z,991.95
2018-04-26T10:14:29.893Z,991.95
2018-04-26T10:15:29.821Z,991.90
2018-04-26T10:16:29.747Z,991.98
2018-04-26T10:17:29.677Z,992.03
2018-04-26T10:18:29.601Z,992.00
2018-04-26T10:19:29.528Z,991.99
2018-04-26T10:20:29.454Z,992.00
2018-04-26T10:21:29.382Z,991.92
2018-04-26T10:22:29.311Z,991.99
2018-04-26T10:23:29.234Z,991.98
2018-04-26T10:24:29.161Z,991.95
2018-04-26T10:25:29.088Z,991.96
2018-04-26T10:26:29.016Z,991.94
2018-04-26T10:27:28.942Z,992.04
2018-04-26T10:28:28.869Z,992.02
2018-04-26T10:29:28.794Z,992.04
2018-04-26T10:30:28.721Z,992.05
2018-04-26T10:31:28.648Z,992.03
2018-04-26T10:32:28.576Z,992.05
2018-04-26T10:33:28.501Z,992.08
2018-04-26T10:34:28.428Z,992.02
2018-04-26T10:35:28.397Z,992.02
2018-04-26T10:36:28.336Z,992.03
2018-04-26T10:37:28.207Z,992.11
2018-04-26T10:38:28.134Z,992.07
2018-04-26T10:39:28.062Z,992.03
2018-04-26T10:40:27.988Z,992.07
2018-04-26T10:41:27.913Z,992.04
2018-04-26T10:42:27.840Z,992.03
2018-04-26T10:43:27.766Z,992.05
2018-04-26T10:44:27.787Z,992.19
2018-04-26T10:45:27.618Z,992.15
2018-04-26T10:46:27.549Z,992.19
2018-04-26T10:47:27.473Z,992.16
2018-04-26T10:48:27.400Z,992.15
2018-04-26T10:49:27.325Z,992.13
2018-04-26T10:50:27.252Z,992.16
2018-04-26T10:51:27.180Z,992.12
2018-04-26T10:52:27.105Z,992.15
2018-04-26T10:53:27.030Z,992.13
2018-04-26T10:54:26.962Z,992.12
2018-04-26T10:55:26.884Z,992.16
2018-04-26T10:56:26.816Z,992.20
2018-04-26T10:57:26.744Z,992.16
2018-04-26T10:58:26.665Z,992.13
2018-04-26T10:59:26.592Z,992.13
2018-04-26T11:00:26.519Z,992.08
2018-04-26T11:01:26.452Z,992.12
2018-04-26T11:02:26.372Z,992.10
2018-04-26T11:03:26.299Z,992.12
2018-04-26T11:04:26.226Z,992.10
2018-04-26T11:05:26.153Z,992.05
2018-04-26T11:06:26.077Z,992.04
2018-04-26T11:07:26.007Z,992.07
2018-04-26T11:08:25.933Z,992.01
2018-04-26T11:09:25.859Z,992.05
2018-04-26T11:10:25.787Z,992.03
2018-04-26T11:11:25.783Z,992.04
2018-04-26T11:12:25.642Z,992.04
2018-04-26T11:13:25.570Z,992.02
2018-04-26T11:14:25.496Z,992.05
2018-04-26T11:15:25.468Z,992.16
2018-04-26T11:16:25.351Z,992.16
2018-04-26T11:17:25.277Z,992.10
2018-04-26T11:18:25.203Z,992.09
2018-04-26T11:19:25.132Z,992.02
2018-04-26T11:20:25.063Z,992.06
2018-04-26T11:21:25.156Z,992.09
2018-04-26T11:22:24.911Z,992.07
2018-04-26T11:23:24.839Z,992.10
2018-04-26T11:24:24.774Z,992.16
2018-04-26T11:25:24.693Z,992.10
2018-04-26T11:26:24.619Z,992.16
2018-04-26T11:27:24.546Z,992.03
2018-04-26T11:28:24.473Z,992.00
2018-04-26T11:29:24.442Z,992.01
2018-04-26T11:30:24.327Z,991.99
2018-04-26T11:31:24.254Z,992.00
2018-04-26T11:32:24.180Z,992.01
2018-04-26T11:33:24.107Z,992.07
2018-04-26T11:34:24.034Z,991.94
2018-04-26T11:35:23.961Z,991.91
2018-04-26T11:36:23.892Z,991.96
2018-04-26T11:37:23.814Z,991.95
2018-04-26T11:38:23.750Z,991.95
2018-04-26T11:39:23.669Z,992.18
2018-04-26T11:40:23.596Z,991.91
2018-04-26T11:41:23.523Z,991.91
2018-04-26T11:42:23.450Z,992.00
2018-04-26T11:43:23.378Z,991.91
2018-04-26T11:44:23.304Z,991.98
2018-04-26T11:45:23.231Z,992.02
2018-04-26T11:46:23.158Z,991.96
2018-04-26T11:47:23.088Z,991.92
2018-04-26T11:48:23.021Z,991.95
2018-04-26T11:49:22.940Z,991.92
2018-04-26T11:50:22.870Z,991.86
2018-04-26T11:51:22.797Z,991.84
2018-04-26T11:52:22.772Z,991.84
2018-04-26T11:53:22.652Z,991.87
2018-04-26T11:54:22.580Z,991.94
2018-04-26T11:55:22.508Z,991.99
2018-04-26T11:56:22.515Z,992.36
2018-04-26T11:57:22.365Z,992.06
2018-04-26T11:58:22.292Z,992.29
2018-04-26T11:59:22.221Z,992.03
2018-04-26T12:00:22.149Z,992.01
2018-04-26T12:01:22.077Z,991.95
2018-04-26T12:02:22.016Z,991.97
2018-04-26T12:03:21.934Z,991.97
2018-04-26T12:04:21.873Z,991.96
2018-04-26T12:05:21.791Z,992.02
2018-04-26T12:06:21.723Z,991.94
2018-04-26T12:07:21.646Z,991.97
2018-04-26T12:08:21.578Z,992.05
2018-04-26T12:09:21.501Z,992.14
2018-04-26T12:10:21.430Z,992.02
2018-04-26T12:11:21.359Z,991.94
2018-04-26T12:12:21.286Z,992.12
2018-04-26T12:13:21.214Z,992.00
2018-04-26T12:14:21.141Z,992.04
2018-04-26T12:15:21.069Z,992.04
2018-04-26T12:16:20.997Z,992.05
2018-04-26T12:17:20.925Z,991.98
2018-04-26T12:18:20.852Z,991.93
2018-04-26T12:19:20.779Z,991.93
2018-04-26T12:20:20.706Z,991.92
2018-04-26T12:21:20.638Z,991.89
2018-04-26T12:22:20.561Z,991.92
2018-04-26T12:23:20.490Z,991.95
2018-04-26T12:24:20.417Z,991.95
2018-04-26T12:25:20.344Z,991.92
2018-04-26T12:26:20.271Z,991.93
2018-04-26T12:27:20.198Z,991.99